createdAt,value
2019-01-12T00:00:55.799Z,7.57
2019-01-12T00:03:24.984Z,7.56
2019-01-12T00:06:01.429Z,7.55
2019-01-12T00:08:30.625Z,7.56
2019-01-12T00:10:59.836Z,7.57
2019-01-12T00:13:29.001Z,7.60
2019-01-12T00:15:58.195Z,7.62
2019-01-12T00:18:29.911Z,7.59
2019-01-12T00:20:58.259Z,7.62
2019-01-12T00:23:27.460Z,7.61
2019-01-12T00:25:56.631Z,7.58
2019-01-12T00:28:25.806Z,7.61
2019-01-12T00:30:55.012Z,7.64
2019-01-12T00:33:24.180Z,7.67
2019-01-12T00:35:53.354Z,7.69
2019-01-12T00:38:22.549Z,7.76
2019-01-12T00:40:51.720Z,7.76
2019-01-12T00:43:20.909Z,7.76
2019-01-12T00:45:50.193Z,7.78
2019-01-12T00:48:37.200Z,7.74
2019-01-12T00:51:06.604Z,7.69
2019-01-12T00:53:35.763Z,7.67
2019-01-12T00:56:05.004Z,7.69
2019-01-12T00:58:34.202Z,7.71
2019-01-12T01:01:03.398Z,7.72
2019-01-12T01:03:32.550Z,7.77
2019-01-12T01:06:01.763Z,7.79
2019-01-12T01:08:30.940Z,7.81
2019-01-12T01:11:00.112Z,7.79
2019-01-12T01:13:29.304Z,7.80
2019-01-12T01:15:58.469Z,7.85
2019-01-12T01:18:27.656Z,7.82
2019-01-12T01:20:56.855Z,7.82
2019-01-12T01:23:26.031Z,7.85
2019-01-12T01:25:55.792Z,7.86
2019-01-12T01:28:25.000Z,7.84
2019-01-12T01:30:54.172Z,7.88
2019-01-12T01:33:27.966Z,7.87
2019-01-12T01:35:54.391Z,7.84
2019-01-12T01:38:23.571Z,7.87
2019-01-12T01:40:52.758Z,7.86
2019-01-12T01:43:21.970Z,7.85
2019-01-12T01:45:51.159Z,7.88
2019-01-12T01:48:20.380Z,7.86
2019-01-12T01:50:49.542Z,7.84
2019-01-12T01:53:18.711Z,7.83
2019-01-12T01:55:47.878Z,7.84
2019-01-12T01:58:17.090Z,7.83
2019-01-12T02:00:46.273Z,7.82
2019-01-12T02:03:15.451Z,7.81
2019-01-12T02:05:44.663Z,7.83
2019-01-12T02:08:13.854Z,7.79
2019-01-12T02:10:43.041Z,7.80
2019-01-12T02:13:12.309Z,7.80
2019-01-12T02:15:41.484Z,7.79
2019-01-12T02:18:10.708Z,7.78
2019-01-12T02:20:39.918Z,7.78
2019-01-12T02:23:09.113Z,7.79
2019-01-12T02:25:38.294Z,7.80
2019-01-12T02:28:07.495Z,7.81
2019-01-12T02:30:36.693Z,7.80
2019-01-12T02:33:05.893Z,7.79
2019-01-12T02:35:35.098Z,7.78
2019-01-12T02:38:04.280Z,7.78
2019-01-12T02:40:34.689Z,7.74
2019-01-12T02:43:03.945Z,7.74
2019-01-12T02:45:33.155Z,7.74
2019-01-12T02:48:02.354Z,7.75
2019-01-12T02:50:31.524Z,7.74
2019-01-12T02:53:00.724Z,7.75
2019-01-12T02:55:29.930Z,7.78
2019-01-12T02:58:00.129Z,7.78
2019-01-12T03:00:29.457Z,7.79
2019-01-12T03:02:58.636Z,7.82
2019-01-12T03:05:27.894Z,7.80
2019-01-12T03:07:57.084Z,7.79
2019-01-12T03:10:26.253Z,7.80
2019-01-12T03:12:55.628Z,7.79
2019-01-12T03:15:24.828Z,7.76
2019-01-12T03:17:54.028Z,7.78
2019-01-12T03:20:23.210Z,7.73
2019-01-12T03:22:52.394Z,7.72
2019-01-12T03:25:21.586Z,7.72
2019-01-12T03:27:50.780Z,7.72
2019-01-12T03:30:20.061Z,7.70
2019-01-12T03:32:49.524Z,7.72
2019-01-12T03:35:18.734Z,7.68
2019-01-12T03:37:48.002Z,7.69
2019-01-12T03:40:17.803Z,7.68
2019-01-12T03:42:47.044Z,7.66
2019-01-12T03:45:17.292Z,7.63
2019-01-12T03:47:46.448Z,7.62
2019-01-12T03:50:16.962Z,7.62
2019-01-12T03:52:46.180Z,7.64
2019-01-12T03:55:15.439Z,7.66
2019-01-12T03:57:44.575Z,7.67
2019-01-12T04:00:16.784Z,7.67
2019-01-12T04:02:45.958Z,7.67
2019-01-12T04:05:15.183Z,7.69
2019-01-12T04:07:44.367Z,7.72
2019-01-12T04:10:14.208Z,7.72
2019-01-12T04:12:43.360Z,7.75
2019-01-12T04:15:13.668Z,7.76
2019-01-12T04:17:43.012Z,7.77
2019-01-12T04:20:14.634Z,7.78
2019-01-12T04:22:43.815Z,7.80
2019-01-12T04:25:13.444Z,7.81
2019-01-12T04:27:44.323Z,7.82
2019-01-12T04:30:15.883Z,7.78
2019-01-12T04:32:45.077Z,7.78
2019-01-12T04:35:14.305Z,7.77
2019-01-12T04:37:43.542Z,7.79
2019-01-12T04:40:15.477Z,7.79
2019-01-12T04:42:44.743Z,7.78
2019-01-12T04:45:14.393Z,7.76
2019-01-12T04:47:43.571Z,7.78
2019-01-12T04:50:14.888Z,7.79
2019-01-12T04:52:44.111Z,7.79
2019-01-12T04:55:14.304Z,7.80
2019-01-12T04:57:43.462Z,7.80
2019-01-12T05:00:15.293Z,7.77
2019-01-12T05:02:44.551Z,7.79
2019-01-12T05:05:13.864Z,7.82
2019-01-12T05:07:43.039Z,7.81
2019-01-12T05:10:13.468Z,7.84
2019-01-12T05:12:42.638Z,7.85
2019-01-12T05:15:13.943Z,7.82
2019-01-12T05:17:43.241Z,7.80
2019-01-12T05:20:15.438Z,7.82
2019-01-12T05:22:44.668Z,7.82
2019-01-12T05:25:13.882Z,7.82
2019-01-12T05:27:43.057Z,7.83
2019-01-12T05:30:17.390Z,7.84
2019-01-12T05:32:46.646Z,7.89
2019-01-12T05:35:15.832Z,7.91
2019-01-12T05:37:45.062Z,7.90
2019-01-12T05:40:14.400Z,7.89
2019-01-12T05:42:43.586Z,7.87
2019-01-12T05:45:13.808Z,7.89
2019-01-12T05:47:43.000Z,7.93
2019-01-12T05:50:13.325Z,7.95
2019-01-12T05:52:42.572Z,7.96
2019-01-12T05:55:11.928Z,7.98
2019-01-12T05:57:41.115Z,7.99
2019-01-12T06:00:18.148Z,8.00
2019-01-12T06:02:47.358Z,7.94
2019-01-12T06:05:16.528Z,7.95
2019-01-12T06:07:45.716Z,7.95
2019-01-12T06:10:15.054Z,7.93
2019-01-12T06:12:44.495Z,7.90
2019-01-12T06:15:14.304Z,7.89
2019-01-12T06:17:43.516Z,7.90
2019-01-12T06:20:14.834Z,7.91
2019-01-12T06:22:44.073Z,7.93
2019-01-12T06:25:13.343Z,7.97
2019-01-12T06:27:42.529Z,7.81
2019-01-12T06:30:14.895Z,7.96
2019-01-12T06:32:44.152Z,7.93
2019-01-12T06:35:13.397Z,7.95
2019-01-12T06:37:42.571Z,7.95
2019-01-12T06:40:14.708Z,7.96
2019-01-12T06:42:43.880Z,7.94
2019-01-12T06:45:15.095Z,7.96
2019-01-12T06:47:44.385Z,7.97
2019-01-12T06:50:15.894Z,7.99
2019-01-12T06:52:45.063Z,8.00
2019-01-12T06:55:14.316Z,8.00
2019-01-12T06:57:43.489Z,8.02
2019-01-12T07:00:15.543Z,7.99
2019-01-12T07:02:44.719Z,8.02
2019-01-12T07:05:13.974Z,8.01
2019-01-12T07:07:43.246Z,8.02
2019-01-12T07:10:14.480Z,8.04
2019-01-12T07:12:43.837Z,8.06
2019-01-12T07:15:14.449Z,8.03
2019-01-12T07:17:43.648Z,8.04
2019-01-12T07:20:14.571Z,8.05
2019-01-12T07:22:44.133Z,8.05
2019-01-12T07:25:13.369Z,8.03
2019-01-12T07:27:42.713Z,8.05
2019-01-12T07:30:14.930Z,8.08
2019-01-12T07:32:44.292Z,8.09
2019-01-12T07:35:13.475Z,8.08
2019-01-12T07:37:42.683Z,8.09
2019-01-12T07:40:11.934Z,8.08
2019-01-12T07:42:41.139Z,8.13
2019-01-12T07:45:11.095Z,8.08
2019-01-12T07:47:40.275Z,8.11
2019-01-12T07:50:12.019Z,8.11
2019-01-12T07:52:41.210Z,8.09
2019-01-12T07:55:10.650Z,8.15
2019-01-12T07:57:39.848Z,8.15
2019-01-12T08:00:15.226Z,8.16
2019-01-12T08:02:44.400Z,8.11
2019-01-12T08:05:15.025Z,8.14
2019-01-12T08:07:44.278Z,8.16
2019-01-12T08:10:19.228Z,8.19
2019-01-12T08:12:48.397Z,8.15
2019-01-12T08:15:17.650Z,8.23
2019-01-12T08:17:46.981Z,8.21
2019-01-12T08:20:16.230Z,8.23
2019-01-12T08:22:45.470Z,8.23
2019-01-12T08:25:33.783Z,8.25
2019-01-12T08:28:02.980Z,8.26
2019-01-12T08:30:32.161Z,8.25
2019-01-12T08:33:01.431Z,8.25
2019-01-12T08:35:30.625Z,8.27
2019-01-12T08:37:59.858Z,8.24
2019-01-12T08:40:29.050Z,8.26
2019-01-12T08:42:58.241Z,8.29
2019-01-12T08:45:27.419Z,8.32
2019-01-12T08:47:56.624Z,8.32
2019-01-12T08:50:26.756Z,8.36
2019-01-12T08:52:55.936Z,8.38
2019-01-12T08:55:25.138Z,8.46
2019-01-12T08:57:54.229Z,8.46
2019-01-12T09:00:23.653Z,8.43
2019-01-12T09:02:52.829Z,8.43
2019-01-12T09:05:22.026Z,8.43
2019-01-12T09:07:51.565Z,8.45
2019-01-12T09:10:20.860Z,8.45
2019-01-12T09:12:50.148Z,8.44
2019-01-12T09:15:19.321Z,8.45
2019-01-12T09:17:48.568Z,8.43
2019-01-12T09:20:17.835Z,8.33
2019-01-12T09:22:47.284Z,8.20
2019-01-12T09:25:16.518Z,8.20
2019-01-12T09:27:46.059Z,8.13
2019-01-12T09:30:18.372Z,8.08
2019-01-12T09:32:47.611Z,8.07
2019-01-12T09:35:16.970Z,8.10
2019-01-12T09:37:46.153Z,7.98
2019-01-12T09:40:17.636Z,8.02
2019-01-12T09:42:47.094Z,8.00
2019-01-12T09:45:17.729Z,8.00
2019-01-12T09:47:47.034Z,7.97
2019-01-12T09:50:17.774Z,7.97
2019-01-12T09:52:47.018Z,7.98
2019-01-12T09:55:16.787Z,8.02
2019-01-12T09:57:46.157Z,8.04
2019-01-12T10:00:20.595Z,7.99
2019-01-12T10:02:49.795Z,8.01
2019-01-12T10:05:19.124Z,8.06
2019-01-12T10:07:48.365Z,8.07
2019-01-12T10:10:20.009Z,8.08
2019-01-12T10:12:49.456Z,8.16
2019-01-12T10:15:18.624Z,8.16
2019-01-12T10:17:47.815Z,8.19
2019-01-12T10:20:18.459Z,8.17
2019-01-12T10:22:47.767Z,8.16
2019-01-12T10:25:17.386Z,8.22
2019-01-12T10:27:46.726Z,8.27
2019-01-12T10:30:18.879Z,8.21
2019-01-12T10:32:48.191Z,8.26
2019-01-12T10:35:17.460Z,8.25
2019-01-12T10:37:46.860Z,8.32
2019-01-12T10:40:19.433Z,8.30
2019-01-12T10:42:49.071Z,8.28
2019-01-12T10:45:20.851Z,8.28
2019-01-12T10:47:50.112Z,8.36
2019-01-12T10:50:22.434Z,8.38
2019-01-12T10:52:51.609Z,8.36
2019-01-12T10:55:20.854Z,8.41
2019-01-12T10:57:50.050Z,8.41
2019-01-12T11:00:28.088Z,8.42
2019-01-12T11:02:57.415Z,8.38
2019-01-12T11:05:26.931Z,8.38
2019-01-12T11:07:56.106Z,8.36
2019-01-12T11:10:25.305Z,8.40
2019-01-12T11:12:54.893Z,8.40
2019-01-12T11:15:24.024Z,8.43
2019-01-12T11:17:53.303Z,8.44
2019-01-12T11:20:22.578Z,8.46
2019-01-12T11:22:51.831Z,8.46
2019-01-12T11:25:21.024Z,8.49
2019-01-12T11:27:50.214Z,8.52
2019-01-12T11:30:20.235Z,8.58
2019-01-12T11:32:49.870Z,8.58
2019-01-12T11:35:19.042Z,8.62
2019-01-12T11:37:48.360Z,8.53
2019-01-12T11:40:20.065Z,8.53
2019-01-12T11:42:50.498Z,8.55
2019-01-12T11:45:20.048Z,8.55
2019-01-12T11:47:49.941Z,8.57
2019-01-12T11:50:19.129Z,8.57
2019-01-12T11:52:48.324Z,8.57
2019-01-12T11:55:18.867Z,8.61
2019-01-12T11:57:48.112Z,8.61
2019-01-12T12:00:23.105Z,8.64
2019-01-12T12:02:52.563Z,8.69
2019-01-12T12:05:21.884Z,8.69
2019-01-12T12:07:51.404Z,8.70
2019-01-12T12:10:21.337Z,8.74
2019-01-12T12:12:50.995Z,8.82
2019-01-12T12:15:21.397Z,8.82
2019-01-12T12:17:50.675Z,8.82
2019-01-12T12:20:22.423Z,8.89
2019-01-12T12:22:51.603Z,8.92
2019-01-12T12:25:38.999Z,8.92
2019-01-12T12:28:08.178Z,8.89
2019-01-12T12:30:37.359Z,8.87
2019-01-12T12:33:06.567Z,8.93
2019-01-12T12:35:37.848Z,8.93
2019-01-12T12:38:06.801Z,8.94
2019-01-12T12:40:36.991Z,8.95
2019-01-12T12:43:06.271Z,8.97
2019-01-12T12:45:35.725Z,8.97
2019-01-12T12:48:05.753Z,8.97
2019-01-12T12:50:35.066Z,9.01
2019-01-12T12:53:04.877Z,9.00
2019-01-12T12:55:34.048Z,9.04
2019-01-12T12:58:03.625Z,9.00
2019-01-12T13:00:33.808Z,8.90
2019-01-12T13:03:02.993Z,8.91
2019-01-12T13:05:33.260Z,8.90
2019-01-12T13:08:02.500Z,8.90
2019-01-12T13:10:31.678Z,8.93
2019-01-12T13:13:00.946Z,8.93
2019-01-12T13:15:30.281Z,8.98
2019-01-12T13:17:59.544Z,8.92
2019-01-12T13:20:41.179Z,8.94
2019-01-12T13:23:12.244Z,8.88
2019-01-12T13:25:41.435Z,8.90
2019-01-12T13:28:10.670Z,8.94
2019-01-12T13:30:39.864Z,8.95
2019-01-12T13:33:09.066Z,8.95
2019-01-12T13:35:38.254Z,8.99
2019-01-12T13:38:07.497Z,8.99
2019-01-12T13:40:36.733Z,9.00
2019-01-12T13:43:05.979Z,8.96
2019-01-12T13:45:35.154Z,8.99
2019-01-12T13:48:05.088Z,9.06
2019-01-12T13:50:34.304Z,9.05
2019-01-12T13:53:03.483Z,9.05
2019-01-12T13:55:32.689Z,9.10
2019-01-12T13:58:01.907Z,9.10
2019-01-12T14:00:33.024Z,9.12
2019-01-12T14:03:02.972Z,9.06
2019-01-12T14:05:32.294Z,9.06
2019-01-12T14:08:01.528Z,9.07
2019-01-12T14:10:30.705Z,9.08
2019-01-12T14:12:59.969Z,9.08
2019-01-12T14:15:29.326Z,9.11
2019-01-12T14:17:58.640Z,9.10
2019-01-12T14:20:33.078Z,9.11
2019-01-12T14:23:02.384Z,9.11
2019-01-12T14:25:31.581Z,9.11
2019-01-12T14:28:00.882Z,9.03
2019-01-12T14:30:30.154Z,9.09
2019-01-12T14:32:59.343Z,9.11
2019-01-12T14:35:28.533Z,9.11
2019-01-12T14:37:57.722Z,9.18
2019-01-12T14:40:27.923Z,9.12
2019-01-12T14:42:57.183Z,9.08
2019-01-12T14:45:28.306Z,9.20
2019-01-12T14:47:57.518Z,9.11
2019-01-12T14:50:26.705Z,9.14
2019-01-12T14:52:55.874Z,9.14
2019-01-12T14:55:25.874Z,9.14
2019-01-12T14:58:01.665Z,9.13
2019-01-12T15:00:27.871Z,9.07
2019-01-12T15:02:57.271Z,9.07
2019-01-12T15:05:28.517Z,9.13
2019-01-12T15:07:57.646Z,9.13
2019-01-12T15:10:26.848Z,9.10
2019-01-12T15:12:56.067Z,9.03
2019-01-12T15:15:25.139Z,9.00
2019-01-12T15:17:54.446Z,8.94
2019-01-12T15:20:25.567Z,8.94
2019-01-12T15:22:56.786Z,8.98
2019-01-12T15:25:26.051Z,9.04
2019-01-12T15:27:55.226Z,9.04
2019-01-12T15:30:26.448Z,9.02
2019-01-12T15:32:56.970Z,9.02
2019-01-12T15:35:29.681Z,9.07
2019-01-12T15:37:58.853Z,9.04
2019-01-12T15:40:28.062Z,9.01
2019-01-12T15:42:57.262Z,9.07
2019-01-12T15:45:27.171Z,9.07
2019-01-12T15:47:56.461Z,8.92
2019-01-12T15:50:26.998Z,8.92
2019-01-12T15:52:56.298Z,8.89
2019-01-12T15:55:25.619Z,8.89
2019-01-12T15:57:54.779Z,8.87
2019-01-12T16:00:26.122Z,8.87
2019-01-12T16:02:55.590Z,8.89
2019-01-12T16:05:24.753Z,8.79
2019-01-12T16:07:53.938Z,8.75
2019-01-12T16:10:23.147Z,8.71
2019-01-12T16:12:52.329Z,8.71
2019-01-12T16:15:23.601Z,8.78
2019-01-12T16:17:52.860Z,8.80
2019-01-12T16:20:27.885Z,8.82
2019-01-12T16:22:57.114Z,8.82
2019-01-12T16:25:26.400Z,8.82
2019-01-12T16:27:55.525Z,8.80
2019-01-12T16:30:24.694Z,8.81
2019-01-12T16:32:53.976Z,8.82
2019-01-12T16:35:23.165Z,8.82
2019-01-12T16:37:52.321Z,8.76
2019-01-12T16:40:28.081Z,8.75
2019-01-12T16:42:57.268Z,8.77
2019-01-12T16:45:26.538Z,8.77
2019-01-12T16:47:56.660Z,8.79
2019-01-12T16:50:25.855Z,8.76
2019-01-12T16:52:55.061Z,8.73
2019-01-12T16:55:24.312Z,8.78
2019-01-12T16:57:55.559Z,8.73
2019-01-12T17:00:26.882Z,8.71
2019-01-12T17:02:56.053Z,8.73
2019-01-12T17:05:25.217Z,8.72
2019-01-12T17:07:54.415Z,8.70
2019-01-12T17:10:23.673Z,8.61
2019-01-12T17:12:52.922Z,8.58
2019-01-12T17:15:23.055Z,8.57
2019-01-12T17:17:52.238Z,8.57
2019-01-12T17:20:23.578Z,8.56
2019-01-12T17:22:58.842Z,8.53
2019-01-12T17:25:28.041Z,8.53
2019-01-12T17:27:57.233Z,8.54
2019-01-12T17:30:28.393Z,8.53
2019-01-12T17:32:57.974Z,8.53
2019-01-12T17:35:27.125Z,8.54
2019-01-12T17:37:56.428Z,8.61
2019-01-12T17:40:25.708Z,8.63
2019-01-12T17:42:54.971Z,8.60
2019-01-12T17:45:24.888Z,8.61
2019-01-12T17:47:54.098Z,8.66
2019-01-12T17:50:24.671Z,8.65
2019-01-12T17:52:54.108Z,8.65
2019-01-12T17:55:24.794Z,8.69
2019-01-12T17:57:53.933Z,8.70
2019-01-12T18:00:26.635Z,8.71
2019-01-12T18:02:55.790Z,8.75
2019-01-12T18:05:25.004Z,8.75
2019-01-12T18:07:54.181Z,8.74
2019-01-12T18:10:23.399Z,8.73
2019-01-12T18:12:52.579Z,8.76
2019-01-12T18:15:21.756Z,8.74
2019-01-12T18:17:50.956Z,8.84
2019-01-12T18:20:20.173Z,8.80
2019-01-12T18:22:49.366Z,8.81
2019-01-12T18:25:18.575Z,8.81
2019-01-12T18:27:47.767Z,8.82
2019-01-12T18:30:22.063Z,8.85
2019-01-12T18:32:51.263Z,8.84
2019-01-12T18:35:20.447Z,8.84
2019-01-12T18:37:49.704Z,8.89
2019-01-12T18:40:20.510Z,8.89
2019-01-12T18:42:49.739Z,8.93
2019-01-12T18:45:20.633Z,8.88
2019-01-12T18:47:49.834Z,8.88
2019-01-12T18:50:21.694Z,8.83
2019-01-12T18:52:51.216Z,8.83
2019-01-12T18:55:22.020Z,8.86
2019-01-12T18:57:51.424Z,8.88
2019-01-12T19:00:23.215Z,8.88
2019-01-12T19:02:52.542Z,9.03
2019-01-12T19:05:21.868Z,9.03
2019-01-12T19:07:51.424Z,8.97
2019-01-12T19:10:20.821Z,8.96
2019-01-12T19:12:50.068Z,8.97
2019-01-12T19:15:27.751Z,8.95
2019-01-12T19:17:57.010Z,8.93
2019-01-12T19:20:26.337Z,8.93
2019-01-12T19:22:55.532Z,8.94
2019-01-12T19:25:24.722Z,8.94
2019-01-12T19:27:53.972Z,8.96
2019-01-12T19:30:23.786Z,8.92
2019-01-12T19:32:52.976Z,8.92
2019-01-12T19:35:24.157Z,8.92
2019-01-12T19:37:53.443Z,8.92
2019-01-12T19:40:25.710Z,8.94
2019-01-12T19:42:54.891Z,8.91
2019-01-12T19:45:24.111Z,8.91
2019-01-12T19:47:53.308Z,8.87
2019-01-12T19:50:24.545Z,8.98
2019-01-12T19:52:53.805Z,8.96
2019-01-12T19:55:23.060Z,8.96
2019-01-12T19:57:52.266Z,8.97
2019-01-12T20:00:27.233Z,8.97
2019-01-12T20:02:56.402Z,8.95
2019-01-12T20:05:25.639Z,8.93
2019-01-12T20:07:54.836Z,8.96
2019-01-12T20:10:24.177Z,8.97
2019-01-12T20:12:53.473Z,8.88
2019-01-12T20:15:24.183Z,8.88
2019-01-12T20:17:53.362Z,8.89
2019-01-12T20:20:22.753Z,8.89
2019-01-12T20:22:51.979Z,8.92
2019-01-12T20:25:26.492Z,8.94
2019-01-12T20:27:55.755Z,8.88
2019-01-12T20:30:39.943Z,8.99
2019-01-12T20:33:15.220Z,8.97
2019-01-12T20:36:17.596Z,8.96
2019-01-12T20:38:52.546Z,9.00
2019-01-12T20:41:30.347Z,8.98
2019-01-12T20:44:11.543Z,8.98
2019-01-12T20:46:49.112Z,8.93
2019-01-12T20:49:27.445Z,8.93
2019-01-12T20:52:07.680Z,8.96
2019-01-12T20:54:45.722Z,8.92
2019-01-12T20:57:23.619Z,8.92
2019-01-12T20:59:58.480Z,8.90
2019-01-12T21:02:42.272Z,8.90
2019-01-12T21:05:22.335Z,8.89
2019-01-12T21:07:54.581Z,8.89
2019-01-12T21:10:32.161Z,8.89
2019-01-12T21:13:37.700Z,8.92
2019-01-12T21:16:12.791Z,8.91
2019-01-12T21:18:41.985Z,8.87
2019-01-12T21:21:11.197Z,8.87
2019-01-12T21:23:41.441Z,8.89
2019-01-12T21:26:10.737Z,8.95
2019-01-12T21:28:39.917Z,8.95
2019-01-12T21:31:09.337Z,8.95
2019-01-12T21:33:38.578Z,8.94
2019-01-12T21:36:07.765Z,8.89
2019-01-12T21:38:36.977Z,8.89
2019-01-12T21:41:06.331Z,8.90
2019-01-12T21:43:35.496Z,8.92
2019-01-12T21:46:05.257Z,8.94
2019-01-12T21:48:34.457Z,8.88
2019-01-12T21:51:03.703Z,8.92
2019-01-12T21:53:32.901Z,8.92
2019-01-12T21:56:02.089Z,8.92
2019-01-12T21:58:31.277Z,8.92
2019-01-12T22:01:00.498Z,8.83
2019-01-12T22:03:30.606Z,8.83
2019-01-12T22:05:59.953Z,8.84
2019-01-12T22:08:29.157Z,8.84
2019-01-12T22:10:58.339Z,8.77
2019-01-12T22:13:27.520Z,8.79
2019-01-12T22:15:56.730Z,8.76
2019-01-12T22:18:25.929Z,8.76
2019-01-12T22:20:55.112Z,8.79
2019-01-12T22:23:24.295Z,8.76
2019-01-12T22:25:53.504Z,8.74
2019-01-12T22:28:22.689Z,8.74
2019-01-12T22:30:51.871Z,8.72
2019-01-12T22:33:21.101Z,8.68
2019-01-12T22:35:50.296Z,8.66
2019-01-12T22:38:19.489Z,8.65
2019-01-12T22:40:48.688Z,8.64
2019-01-12T22:43:17.879Z,8.64
2019-01-12T22:45:48.075Z,8.66
2019-01-12T22:48:17.265Z,8.63
2019-01-12T22:50:46.445Z,8.66
2019-01-12T22:53:15.620Z,8.61
2019-01-12T22:55:44.822Z,8.61
2019-01-12T22:58:14.914Z,8.61
2019-01-12T23:00:50.951Z,8.58
2019-01-12T23:03:20.196Z,8.53
2019-01-12T23:05:49.383Z,8.47
2019-01-12T23:08:18.593Z,8.51
2019-01-12T23:10:47.838Z,8.48
2019-01-12T23:13:22.865Z,8.52
2019-01-12T23:15:52.072Z,8.52
2019-01-12T23:18:21.290Z,8.52
2019-01-12T23:20:50.545Z,8.52
2019-01-12T23:23:19.788Z,8.52
2019-01-12T23:25:48.998Z,8.54
2019-01-12T23:28:18.166Z,8.54
2019-01-12T23:30:47.473Z,8.48
2019-01-12T23:33:16.747Z,8.53
2019-01-12T23:35:46.006Z,8.51
2019-01-12T23:38:15.215Z,8.56
2019-01-12T23:40:45.339Z,8.56
2019-01-12T23:43:14.666Z,8.54
2019-01-12T23:45:43.853Z,8.54
2019-01-12T23:48:13.063Z,8.56
2019-01-12T23:50:42.267Z,8.56
2019-01-12T23:53:12.462Z,8.59
2019-01-12T23:55:41.674Z,8.55
2019-01-12T23:58:10.857Z,8.55
